Main page
METAR-TAF:

METAR-TAF

Airports :

Bahrain International Airport

Bahrain, Bahrain

latitude: 26-16N, longitude: 050-39E, elevation: 2 m

Current weather observation

The report was made 49 minutes ago, at 21:00 UTC
Wind 3 kt from the North/Northwest
Temperature 34°C
Humidity 56%
Pressure 995 hPa
Visibility 10 km or more
no clouds below 1500 m and no cumulonimbus

METAR: OBBI 052100Z 34003KT CAVOK 34/24 Q0995 NOSIG

Time: 00:49 (21:49 UTC)

Forecast

The report was made 4 hours and 49 minutes ago, at 17:00 UTC
Forecast valid from 05 at 18 UTC to 07 at 00 UTC
Wind 7 kt from the North/Northwest
Visibility: 8000 m
Probability 30% :
Temporary
from 06 at 00 UTC to 06 at 06 UTC
Visibility: 4000 m
widespread dust
Probability 30% :
Temporary
from 06 at 18 UTC to 07 at 00 UTC
Visibility: 4000 m
haze

TAF: OBBI 051700Z 0518/0700 33007KT 8000 NSC PROB30 TEMPO 0600/0606 4000 DU PROB30 TEMPO 0618/0700 4000 HZ

Weather observations and forecasts of more than 4000 airports (METAR and TAF reports).

The available stations are represented by yellow and red dots on the map.

Hover mouse over dot to see the name of the station.

Then click to see weather observations and forecasts.

To change the map : click on the green buttons with a black cross to zoom in, on the green button with a dash to zoom out, or on the green arrows for adjacent maps.


METAR-TAF: